Time;durP1;ratioP1;P1;durP2;ratioP2;P2;SDS_P1;SDS_P2;PMS_P1;PMS_P2;Temp;Humidity;BMP_temperature;BMP_pressure;BME280_temperature;BME280_humidity;BME280_pressure;Samples;Min_cycle;Max_cycle;Signal;HPM_P1;HPM_P2
2022/10/23 00:00:29;;;;;;;13.17;8.27;;;9.70;99.90;;;;;;5034875;28;20253;-68
2022/10/23 00:02:55;;;;;;;13.63;7.07;;;9.60;99.90;;;;;;5035039;28;20570;-68
2022/10/23 00:05:22;;;;;;;11.30;7.30;;;9.60;99.90;;;;;;5034569;28;20690;-67
2022/10/23 00:07:52;;;;;;;11.57;7.60;;;9.60;99.90;;;;;;5034646;28;20262;-68
2022/10/23 00:10:19;;;;;;;10.60;6.90;;;9.70;99.90;;;;;;5034690;28;20209;-68
2022/10/23 00:12:45;;;;;;;14.23;7.63;;;9.70;99.90;;;;;;5034629;28;20640;-69
2022/10/23 00:15:11;;;;;;;16.83;7.90;;;9.70;99.90;;;;;;5034364;28;20202;-68
2022/10/23 00:17:37;;;;;;;11.63;7.80;;;9.70;99.90;;;;;;5034424;28;20539;-69
2022/10/23 00:20:05;;;;;;;12.27;7.03;;;9.70;99.90;;;;;;5034067;28;20179;-68
2022/10/23 00:22:31;;;;;;;15.97;7.87;;;9.70;99.90;;;;;;5033069;28;20294;-68
2022/10/23 00:24:56;;;;;;;10.60;6.73;;;9.70;99.90;;;;;;5034266;28;20273;-68
2022/10/23 00:27:23;;;;;;;11.53;7.90;;;9.70;99.90;;;;;;5034269;28;20160;-68
2022/10/23 00:29:48;;;;;;;13.10;7.50;;;9.60;99.90;;;;;;5032177;28;20334;-68
2022/10/23 00:32:14;;;;;;;14.07;7.83;;;9.70;99.90;;;;;;5033307;28;20254;-69
2022/10/23 00:34:40;;;;;;;11.27;7.67;;;9.70;99.90;;;;;;5033470;28;20273;-68
2022/10/23 00:37:06;;;;;;;12.00;7.50;;;9.70;99.90;;;;;;5031929;28;20643;-68
2022/10/23 00:39:31;;;;;;;13.87;8.20;;;9.60;99.90;;;;;;5033554;28;20233;-68
2022/10/23 00:41:57;;;;;;;11.67;7.37;;;9.60;99.90;;;;;;5033133;28;20203;-68
2022/10/23 00:44:23;;;;;;;8.50;7.60;;;9.50;99.90;;;;;;5033343;28;20245;-68
2022/10/23 00:46:49;;;;;;;9.50;7.60;;;9.40;99.90;;;;;;5033127;28;20179;-67
2022/10/23 00:49:15;;;;;;;14.37;8.13;;;9.40;99.90;;;;;;5013978;28;20180;-67
2022/10/23 00:51:47;;;;;;;10.30;7.80;;;9.40;99.90;;;;;;5013461;28;20176;-68
2022/10/23 00:54:15;;;;;;;11.30;6.97;;;9.30;99.90;;;;;;5011988;28;20199;-68
2022/10/23 00:56:43;;;;;;;8.30;7.13;;;9.30;99.90;;;;;;5013289;28;20190;-68
2022/10/23 00:59:09;;;;;;;9.50;7.40;;;9.30;99.90;;;;;;5011941;28;20537;-68
2022/10/23 01:01:36;;;;;;;10.07;7.57;;;9.20;99.90;;;;;;5011663;28;20218;-68
2022/10/23 01:04:04;;;;;;;12.07;7.30;;;9.20;99.90;;;;;;5013089;28;20188;-68
2022/10/23 01:06:35;;;;;;;11.97;7.23;;;9.20;99.90;;;;;;5013122;28;20164;-67
2022/10/23 01:09:22;;;;;;;12.33;8.27;;;9.20;99.90;;;;;;5013468;28;20625;-67
2022/10/23 01:11:56;;;;;;;12.53;8.77;;;9.10;99.90;;;;;;5013389;28;20523;-68
2022/10/23 01:14:33;;;;;;;12.80;8.00;;;9.10;99.90;;;;;;5013028;28;20683;-68
2022/10/23 01:17:08;;;;;;;11.33;7.20;;;9.10;99.90;;;;;;5012811;28;20179;-68
2022/10/23 01:19:55;;;;;;;10.67;7.50;;;9.20;99.90;;;;;;5013009;28;20164;-69
2022/10/23 01:22:35;;;;;;;11.27;8.03;;;9.10;99.90;;;;;;5013083;28;20640;-68
2022/10/23 01:25:47;;;;;;;10.33;7.63;;;9.00;99.90;;;;;;5013394;28;20657;-67
2022/10/23 01:28:20;;;;;;;12.33;6.93;;;9.00;99.90;;;;;;4997095;28;526802;-68
2022/10/23 01:30:47;;;;;;;10.67;7.30;;;9.00;99.90;;;;;;5012382;28;20164;-67
2022/10/23 01:33:27;;;;;;;12.33;7.30;;;9.00;99.90;;;;;;5028615;28;20183;-68
2022/10/23 01:36:03;;;;;;;9.53;6.50;;;9.00;99.90;;;;;;5013958;28;20171;-67
2022/10/23 01:39:00;;;;;;;12.53;7.47;;;9.00;99.90;;;;;;5012352;28;20179;-68
2022/10/23 01:41:32;;;;;;;11.37;7.60;;;9.00;99.90;;;;;;5012196;28;20298;-68
2022/10/23 01:44:25;;;;;;;8.40;7.50;;;9.00;99.90;;;;;;5013418;28;20195;-68
2022/10/23 01:46:52;;;;;;;17.40;7.63;;;8.90;99.90;;;;;;5014921;28;20204;-68
2022/10/23 01:49:20;;;;;;;11.83;8.27;;;9.00;99.90;;;;;;5032030;28;20175;-68
2022/10/23 01:51:50;;;;;;;11.07;7.07;;;9.00;99.90;;;;;;5033432;28;20567;-68
2022/10/23 01:54:18;;;;;;;9.27;7.27;;;9.00;99.90;;;;;;5033300;28;20213;-68
2022/10/23 01:56:47;;;;;;;15.63;7.80;;;8.90;99.90;;;;;;5033165;28;20167;-67
2022/10/23 01:59:21;;;;;;;13.23;7.53;;;8.90;99.90;;;;;;5033701;28;20186;-68
2022/10/23 02:01:50;;;;;;;13.43;7.50;;;8.90;99.90;;;;;;5033124;28;20225;-68
2022/10/23 02:04:22;;;;;;;9.60;7.27;;;8.80;99.90;;;;;;5033110;28;20253;-68
2022/10/23 02:06:48;;;;;;;10.87;6.53;;;8.80;99.90;;;;;;5033030;28;20167;-67
2022/10/23 02:09:14;;;;;;;11.87;7.00;;;8.70;99.90;;;;;;5031799;28;20210;-67
2022/10/23 02:11:51;;;;;;;9.13;6.73;;;8.80;99.90;;;;;;5033123;28;20211;-67
2022/10/23 02:14:32;;;;;;;8.77;6.60;;;8.80;99.90;;;;;;5033318;28;20659;-67
2022/10/23 02:17:07;;;;;;;10.47;6.70;;;8.80;99.90;;;;;;5033241;28;20171;-67
2022/10/23 02:19:39;;;;;;;13.43;6.73;;;8.80;99.90;;;;;;5033795;28;20170;-67
2022/10/23 02:22:17;;;;;;;12.40;7.07;;;8.70;99.90;;;;;;5032181;28;20218;-67
2022/10/23 02:24:58;;;;;;;7.77;6.67;;;8.70;99.90;;;;;;5032977;28;20264;-67
2022/10/23 02:27:44;;;;;;;14.10;7.07;;;8.70;99.90;;;;;;5032810;28;20170;-67
2022/10/23 02:30:13;;;;;;;9.27;6.80;;;8.80;99.90;;;;;;5031455;28;20266;-66
2022/10/23 02:32:45;;;;;;;10.37;7.13;;;8.80;99.90;;;;;;5032766;28;20176;-67
2022/10/23 02:35:11;;;;;;;17.70;7.70;;;8.80;99.90;;;;;;5031478;28;20818;-67
2022/10/23 02:37:37;;;;;;;12.97;7.17;;;8.80;99.90;;;;;;5032785;28;20171;-67
2022/10/23 02:40:03;;;;;;;11.47;6.33;;;8.80;99.90;;;;;;5031527;28;20176;-68
2022/10/23 02:42:40;;;;;;;9.50;6.70;;;8.80;99.90;;;;;;5033408;28;20676;-67
2022/10/23 02:45:23;;;;;;;11.13;6.70;;;8.70;99.90;;;;;;5037192;28;20553;-68
2022/10/23 02:48:09;;;;;;;8.93;6.40;;;8.70;99.90;;;;;;5036236;28;20640;-67
2022/10/23 02:51:01;;;;;;;8.90;6.50;;;8.80;99.90;;;;;;5035956;28;20553;-67
2022/10/23 02:53:45;;;;;;;10.93;6.77;;;8.70;99.90;;;;;;5036521;28;20201;-68
2022/10/23 02:56:43;;;;;;;8.17;6.97;;;8.80;99.90;;;;;;5036871;28;20217;-68
2022/10/23 02:59:17;;;;;;;11.17;6.60;;;8.80;99.90;;;;;;5034700;28;20172;-67
2022/10/23 03:01:50;;;;;;;8.33;6.00;;;8.70;99.90;;;;;;5035792;28;20213;-67
2022/10/23 03:04:19;;;;;;;9.13;6.77;;;8.80;99.90;;;;;;5035779;28;20200;-67
2022/10/23 03:06:45;;;;;;;11.73;6.40;;;8.80;99.90;;;;;;5036113;28;20170;-67
2022/10/23 03:09:11;;;;;;;10.37;6.30;;;8.70;99.90;;;;;;5035848;28;20171;-67
2022/10/23 03:11:36;;;;;;;9.27;6.27;;;8.70;99.90;;;;;;5035905;28;20565;-68
2022/10/23 03:14:02;;;;;;;7.97;6.60;;;8.70;99.90;;;;;;5035902;28;20253;-68
2022/10/23 03:16:28;;;;;;;8.47;6.50;;;8.70;99.90;;;;;;5034273;28;20179;-68
2022/10/23 03:18:54;;;;;;;8.13;6.00;;;8.60;99.90;;;;;;5035658;28;20531;-68
2022/10/23 03:21:20;;;;;;;10.40;6.47;;;8.60;99.90;;;;;;5035905;28;20266;-67
2022/10/23 03:23:45;;;;;;;7.20;6.00;;;8.70;99.90;;;;;;5035500;28;20203;-67
2022/10/23 03:26:11;;;;;;;9.27;6.17;;;8.60;99.90;;;;;;5035499;28;20190;-67
2022/10/23 03:28:37;;;;;;;8.07;5.67;;;8.60;99.90;;;;;;5035609;28;20240;-67
2022/10/23 03:31:03;;;;;;;7.17;6.13;;;8.70;99.90;;;;;;5034024;28;20550;-67
2022/10/23 03:33:32;;;;;;;10.03;6.80;;;8.60;99.90;;;;;;5035266;28;20198;-68
2022/10/23 03:35:57;;;;;;;11.57;6.33;;;8.70;99.90;;;;;;5035313;28;20180;-67
2022/10/23 03:38:23;;;;;;;8.30;5.97;;;8.60;99.90;;;;;;5035333;28;20198;-67
2022/10/23 03:40:49;;;;;;;7.43;5.93;;;8.60;99.90;;;;;;5035290;28;20207;-68
2022/10/23 03:43:15;;;;;;;6.67;5.40;;;8.50;99.90;;;;;;5035300;28;20254;-67
2022/10/23 03:45:40;;;;;;;6.80;5.70;;;8.60;99.90;;;;;;5033727;28;20297;-67
2022/10/23 03:48:07;;;;;;;6.33;5.20;;;8.60;99.90;;;;;;5035160;28;20189;-67
2022/10/23 03:50:34;;;;;;;9.97;5.60;;;8.60;99.90;;;;;;5033772;28;20206;-67
2022/10/23 03:53:00;;;;;;;6.57;5.87;;;8.60;99.90;;;;;;5033844;28;20282;-67
2022/10/23 03:55:26;;;;;;;7.23;6.03;;;8.60;99.90;;;;;;5033866;28;20214;-67
2022/10/23 03:57:53;;;;;;;7.47;5.33;;;8.60;99.90;;;;;;5034975;28;20190;-67
2022/10/23 04:00:18;;;;;;;7.67;5.57;;;8.60;99.90;;;;;;5034827;28;20175;-67
2022/10/23 04:02:44;;;;;;;6.23;5.63;;;8.60;99.90;;;;;;5033454;28;20210;-67
2022/10/23 04:05:10;;;;;;;6.23;5.17;;;8.70;99.90;;;;;;5033471;28;20199;-67
2022/10/23 04:07:36;;;;;;;7.17;5.70;;;8.70;99.90;;;;;;5035122;28;20182;-67
2022/10/23 04:10:04;;;;;;;6.37;5.37;;;8.70;99.90;;;;;;5033435;28;20180;-67
2022/10/23 04:12:29;;;;;;;8.23;5.47;;;8.80;99.90;;;;;;5033478;28;20187;-67
2022/10/23 04:14:55;;;;;;;7.73;5.77;;;8.80;99.90;;;;;;5035096;28;20210;-67
2022/10/23 04:17:21;;;;;;;9.27;6.20;;;8.70;99.90;;;;;;5034425;28;20182;-67
2022/10/23 04:19:47;;;;;;;7.30;5.80;;;8.70;99.90;;;;;;5034756;28;20175;-68
2022/10/23 04:22:12;;;;;;;8.30;5.80;;;8.70;99.90;;;;;;5033118;28;20297;-68
2022/10/23 04:24:42;;;;;;;10.00;5.37;;;8.70;99.90;;;;;;5034635;28;20288;-68
2022/10/23 04:27:08;;;;;;;11.07;5.93;;;8.70;99.90;;;;;;5033374;28;20207;-67
2022/10/23 04:29:34;;;;;;;11.37;6.33;;;8.60;99.90;;;;;;5034779;28;20237;-66
2022/10/23 04:31:59;;;;;;;9.67;6.53;;;8.60;99.90;;;;;;5034571;28;20657;-66
2022/10/23 04:34:25;;;;;;;13.20;6.80;;;8.60;99.90;;;;;;5034394;28;20211;-66
2022/10/23 04:36:51;;;;;;;7.93;6.20;;;8.70;99.90;;;;;;5033481;28;20183;-66
2022/10/23 04:39:16;;;;;;;8.70;6.10;;;8.70;99.90;;;;;;5034253;28;20228;-66
2022/10/23 04:41:42;;;;;;;8.10;6.40;;;8.70;99.90;;;;;;5034236;28;20218;-66
2022/10/23 04:44:08;;;;;;;7.33;6.23;;;8.70;99.90;;;;;;5035048;28;20199;-66
2022/10/23 04:46:33;;;;;;;9.80;6.93;;;8.80;99.90;;;;;;5034174;28;20170;-66
2022/10/23 04:48:59;;;;;;;9.30;5.50;;;8.80;99.90;;;;;;5034325;28;20633;-66
2022/10/23 04:51:25;;;;;;;10.13;5.93;;;8.80;99.90;;;;;;5033004;28;20190;-67
2022/10/23 04:53:51;;;;;;;9.83;6.77;;;8.80;99.90;;;;;;5034017;28;20234;-67
2022/10/23 04:56:17;;;;;;;7.27;5.60;;;8.80;99.90;;;;;;5034414;28;20261;-67
2022/10/23 04:58:42;;;;;;;10.73;5.93;;;8.80;99.90;;;;;;5034275;28;20187;-67
2022/10/23 05:01:09;;;;;;;9.67;5.53;;;8.80;99.90;;;;;;5033791;28;20186;-67
2022/10/23 05:03:36;;;;;;;8.27;5.87;;;8.80;99.90;;;;;;5034062;28;20818;-67
2022/10/23 05:06:03;;;;;;;9.23;5.73;;;8.80;99.90;;;;;;5033717;28;20199;-66
2022/10/23 05:08:29;;;;;;;7.73;6.30;;;8.80;99.90;;;;;;5033841;28;20199;-67
2022/10/23 05:10:54;;;;;;;9.23;6.13;;;8.90;99.90;;;;;;5033931;28;20207;-66
2022/10/23 05:13:20;;;;;;;8.73;6.33;;;8.80;99.90;;;;;;5034272;28;20183;-66
2022/10/23 05:15:48;;;;;;;9.33;6.23;;;8.90;99.90;;;;;;5032590;28;20617;-67
2022/10/23 05:18:24;;;;;;;11.33;6.10;;;8.80;99.90;;;;;;5022701;28;20190;-67
2022/10/23 05:20:58;;;;;;;12.93;6.10;;;8.90;99.90;;;;;;5014430;28;20176;-67
2022/10/23 05:23:25;;;;;;;8.13;6.20;;;8.90;99.90;;;;;;5012624;28;20202;-66
2022/10/23 05:25:51;;;;;;;10.13;5.50;;;8.90;99.90;;;;;;5014067;28;20179;-66
2022/10/23 05:28:16;;;;;;;10.33;5.50;;;8.90;99.90;;;;;;5028921;28;20200;-66
2022/10/23 05:30:42;;;;;;;7.07;5.40;;;8.90;99.90;;;;;;5013906;28;20171;-66
2022/10/23 05:33:09;;;;;;;9.03;6.10;;;9.00;99.90;;;;;;5014066;28;20633;-66
2022/10/23 05:35:36;;;;;;;10.00;6.50;;;8.90;99.90;;;;;;5013981;28;20187;-65
2022/10/23 05:38:02;;;;;;;10.60;6.10;;;9.00;99.90;;;;;;5014035;28;20545;-66
2022/10/23 05:40:28;;;;;;;12.90;6.27;;;9.00;99.90;;;;;;5013780;28;20641;-64
2022/10/23 05:42:53;;;;;;;6.00;5.40;;;9.00;99.90;;;;;;5013540;28;20210;-63
2022/10/23 05:45:19;;;;;;;7.97;5.93;;;9.00;99.90;;;;;;5013559;28;20195;-64
2022/10/23 05:47:45;;;;;;;7.90;5.87;;;9.10;99.90;;;;;;5019333;28;20553;-64
2022/10/23 05:50:11;;;;;;;10.17;6.20;;;9.10;99.90;;;;;;5033096;28;20674;-63
2022/10/23 05:52:37;;;;;;;8.50;6.03;;;9.00;99.90;;;;;;5033421;28;20187;-64
2022/10/23 05:55:03;;;;;;;11.27;5.67;;;9.10;99.90;;;;;;5033286;28;20195;-63
2022/10/23 05:57:31;;;;;;;8.10;5.43;;;9.10;99.90;;;;;;5033401;28;20187;-64
2022/10/23 05:59:57;;;;;;;9.47;5.87;;;9.10;99.90;;;;;;5033020;28;20316;-63
2022/10/23 06:02:23;;;;;;;6.27;5.57;;;9.10;99.90;;;;;;5033053;28;20206;-63
2022/10/23 06:04:49;;;;;;;8.27;6.00;;;9.20;99.90;;;;;;5033150;28;20195;-64
2022/10/23 06:07:14;;;;;;;10.10;6.20;;;9.20;99.90;;;;;;5033387;28;20246;-64
2022/10/23 06:09:40;;;;;;;8.60;6.13;;;9.20;99.90;;;;;;5031805;28;20195;-63
2022/10/23 06:12:06;;;;;;;10.37;6.70;;;9.10;99.90;;;;;;5033036;28;20190;-63
2022/10/23 06:14:32;;;;;;;11.23;6.90;;;9.20;99.90;;;;;;5032951;28;20671;-63
2022/10/23 06:16:57;;;;;;;12.90;6.53;;;9.20;99.90;;;;;;5031562;28;20203;-63
2022/10/23 06:19:23;;;;;;;11.77;7.07;;;9.10;99.90;;;;;;5016054;28;20187;-63
2022/10/23 06:21:49;;;;;;;8.07;6.10;;;9.10;99.90;;;;;;5017149;28;20708;-64
2022/10/23 06:24:15;;;;;;;8.80;6.20;;;9.20;99.90;;;;;;5032076;28;20267;-64
2022/10/23 06:26:40;;;;;;;8.77;6.53;;;9.10;99.90;;;;;;5016920;28;20546;-64
2022/10/23 06:29:06;;;;;;;13.50;6.93;;;9.20;99.90;;;;;;5016647;28;20224;-63
2022/10/23 06:31:32;;;;;;;8.73;6.93;;;9.10;99.90;;;;;;5016581;28;20183;-64
2022/10/23 06:33:58;;;;;;;10.57;6.67;;;9.10;99.90;;;;;;5031859;28;20203;-64
2022/10/23 06:36:25;;;;;;;9.03;6.70;;;9.10;99.90;;;;;;5016682;28;20259;-64
2022/10/23 06:38:51;;;;;;;12.17;7.30;;;9.10;99.90;;;;;;5016653;28;20322;-64
2022/10/23 06:41:19;;;;;;;7.90;6.70;;;9.10;99.90;;;;;;5016915;28;20785;-63
2022/10/23 06:43:50;;;;;;;10.40;7.10;;;9.10;99.90;;;;;;5016547;28;20203;-64
2022/10/23 06:46:17;;;;;;;7.67;6.23;;;9.10;99.90;;;;;;5016609;28;20203;-64
2022/10/23 06:48:42;;;;;;;9.57;7.77;;;9.20;99.90;;;;;;5039533;28;20245;-64
2022/10/23 06:51:10;;;;;;;10.17;5.87;;;9.20;99.90;;;;;;5034924;28;20183;-64
2022/10/23 06:53:36;;;;;;;18.77;6.57;;;9.30;99.90;;;;;;5036373;28;20191;-64
2022/10/23 06:56:04;;;;;;;9.97;6.37;;;9.30;99.90;;;;;;5036087;28;20534;-64
2022/10/23 06:58:30;;;;;;;10.93;6.10;;;9.40;99.90;;;;;;5034830;28;20229;-63
2022/10/23 07:00:59;;;;;;;9.37;6.47;;;9.40;99.90;;;;;;5035779;28;20186;-64
2022/10/23 07:03:25;;;;;;;12.20;6.30;;;9.50;99.90;;;;;;5034528;28;20260;-64
2022/10/23 07:05:51;;;;;;;9.80;6.17;;;9.50;99.90;;;;;;5035927;28;20168;-64
2022/10/23 07:08:16;;;;;;;10.43;6.43;;;9.60;99.90;;;;;;5035813;28;20255;-65
2022/10/23 07:10:42;;;;;;;15.60;6.23;;;9.60;99.90;;;;;;5035776;28;20635;-65
2022/10/23 07:13:09;;;;;;;10.60;7.03;;;9.70;99.90;;;;;;5035943;28;20171;-65
2022/10/23 07:15:35;;;;;;;8.63;5.97;;;9.80;99.90;;;;;;5036003;28;20293;-65
2022/10/23 07:18:01;;;;;;;11.00;6.97;;;9.90;99.90;;;;;;5035479;28;20179;-65
2022/10/23 07:20:27;;;;;;;10.60;6.87;;;9.90;99.90;;;;;;5035688;28;20187;-65
2022/10/23 07:22:54;;;;;;;7.83;6.30;;;10.00;99.90;;;;;;5035468;28;20198;-65
2022/10/23 07:25:25;;;;;;;7.70;6.80;;;10.00;99.90;;;;;;5035467;28;20195;-64
2022/10/23 07:27:51;;;;;;;7.53;6.40;;;10.10;99.90;;;;;;5034117;28;20206;-64
2022/10/23 07:30:17;;;;;;;7.37;5.83;;;10.20;99.90;;;;;;5035594;28;20175;-65
2022/10/23 07:32:43;;;;;;;5.77;5.10;;;10.20;99.90;;;;;;5035316;28;20673;-65
2022/10/23 07:35:11;;;;;;;6.53;5.83;;;10.30;99.90;;;;;;5035330;28;20199;-65
2022/10/23 07:37:37;;;;;;;7.00;6.03;;;10.30;99.90;;;;;;5035644;28;20183;-64
2022/10/23 07:40:04;;;;;;;6.40;5.60;;;10.40;99.90;;;;;;5035569;28;20182;-67
2022/10/23 07:42:29;;;;;;;7.67;6.00;;;10.40;99.90;;;;;;5033763;28;20199;-64
2022/10/23 07:44:55;;;;;;;7.03;5.27;;;10.50;99.90;;;;;;5035233;28;20281;-64
2022/10/23 07:47:21;;;;;;;11.40;6.80;;;10.50;99.90;;;;;;5033972;28;20217;-67
2022/10/23 07:49:50;;;;;;;9.87;6.60;;;10.60;99.90;;;;;;5035784;28;20198;-68
2022/10/23 07:52:16;;;;;;;6.73;5.50;;;10.60;99.90;;;;;;5034169;28;20179;-68
2022/10/23 07:54:42;;;;;;;9.37;6.60;;;10.60;99.90;;;;;;5034856;28;20261;-68
2022/10/23 07:57:10;;;;;;;9.43;7.10;;;10.60;99.90;;;;;;5035072;28;20171;-69
2022/10/23 07:59:37;;;;;;;7.47;5.77;;;10.70;99.90;;;;;;5034829;28;20258;-69
2022/10/23 08:02:03;;;;;;;7.00;5.67;;;10.70;99.90;;;;;;5033387;28;20210;-69
2022/10/23 08:04:28;;;;;;;6.60;5.30;;;10.80;99.90;;;;;;5034764;28;20191;-69
2022/10/23 08:06:55;;;;;;;6.35;5.72;;;10.80;99.90;;;;;;5035479;28;20525;-69
2022/10/23 08:09:21;;;;;;;7.27;5.27;;;10.90;99.90;;;;;;5035437;28;20177;-68
2022/10/23 08:11:47;;;;;;;8.07;5.63;;;11.00;99.90;;;;;;5035212;28;20186;-68
2022/10/23 08:14:12;;;;;;;7.57;6.03;;;11.10;99.90;;;;;;5035142;28;20199;-69
2022/10/23 08:16:39;;;;;;;7.22;6.03;;;11.10;99.90;;;;;;5034659;28;20543;-69
2022/10/23 08:19:06;;;;;;;7.35;6.28;;;11.20;99.90;;;;;;5033350;28;20183;-69
2022/10/23 08:21:32;;;;;;;6.55;5.95;;;11.30;99.90;;;;;;5033264;28;20206;-69
2022/10/23 08:23:59;;;;;;;7.72;6.38;;;11.40;99.90;;;;;;5034478;28;20274;-68
2022/10/23 08:26:28;;;;;;;10.85;6.65;;;11.50;99.90;;;;;;5034419;28;20178;-68
2022/10/23 08:28:54;;;;;;;8.30;6.55;;;11.60;99.90;;;;;;5033005;28;20198;-69
2022/10/23 08:31:21;;;;;;;8.35;6.18;;;11.70;99.90;;;;;;5034439;28;20546;-68
2022/10/23 08:33:47;;;;;;;7.45;6.45;;;11.80;99.90;;;;;;5034276;28;20717;-68
2022/10/23 08:36:20;;;;;;;8.73;6.75;;;11.90;99.90;;;;;;5034927;28;20175;-68
2022/10/23 08:38:46;;;;;;;10.18;6.80;;;12.10;99.90;;;;;;5033186;28;20274;-68
2022/10/23 08:41:46;;;;;;;9.73;7.55;;;12.30;99.90;;;;;;5033771;28;20175;-69
2022/10/23 08:44:31;;;;;;;17.65;10.48;;;12.40;99.90;;;;;;5033956;28;20191;-69
2022/10/23 08:46:58;;;;;;;18.95;11.35;;;12.70;99.90;;;;;;5033916;28;20242;-68
2022/10/23 08:49:52;;;;;;;14.63;9.05;;;12.90;99.90;;;;;;5032569;28;20529;-68
2022/10/23 08:52:28;;;;;;;12.88;7.40;;;13.10;99.90;;;;;;5033479;28;20648;-68
2022/10/23 08:55:00;;;;;;;11.00;6.72;;;13.40;99.90;;;;;;5033712;28;20201;-68
2022/10/23 08:57:34;;;;;;;12.68;6.32;;;13.60;99.90;;;;;;5034088;28;20563;-68
2022/10/23 09:00:12;;;;;;;9.27;6.72;;;13.90;99.90;;;;;;5032485;28;20183;-68
2022/10/23 09:02:47;;;;;;;8.90;6.00;;;14.10;99.90;;;;;;5032221;28;20207;-69
2022/10/23 09:05:16;;;;;;;8.60;5.57;;;14.40;99.90;;;;;;5033967;28;20605;-68
2022/10/23 09:07:49;;;;;;;8.55;5.53;;;14.60;99.90;;;;;;5033735;28;20199;-68
2022/10/23 09:10:45;;;;;;;7.55;5.57;;;14.80;99.90;;;;;;5033723;28;20164;-69
2022/10/23 09:13:29;;;;;;;8.60;5.03;;;15.00;99.90;;;;;;5032223;28;20214;-68
2022/10/23 09:16:36;;;;;;;4.65;4.20;;;15.20;99.90;;;;;;5033502;28;20179;-68
2022/10/23 09:19:15;;;;;;;4.60;3.70;;;15.40;99.90;;;;;;5032986;28;20599;-69
2022/10/23 09:21:43;;;;;;;7.28;3.28;;;15.60;99.90;;;;;;5033736;28;20183;-69
2022/10/23 09:24:16;;;;;;;10.20;3.78;;;15.60;99.90;;;;;;5033492;28;20198;-69
2022/10/23 09:26:47;;;;;;;3.72;3.20;;;15.70;99.90;;;;;;5033767;28;20616;-69
2022/10/23 09:29:34;;;;;;;4.38;3.20;;;15.80;99.90;;;;;;5033409;28;20223;-69
2022/10/23 09:32:03;;;;;;;4.15;3.15;;;15.90;99.90;;;;;;5031919;28;20175;-69
2022/10/23 09:34:31;;;;;;;5.20;3.30;;;15.90;99.90;;;;;;5033385;28;20626;-69
2022/10/23 09:37:21;;;;;;;7.95;3.03;;;16.00;99.90;;;;;;5033595;28;20175;-68
2022/10/23 09:39:47;;;;;;;6.50;3.00;;;16.10;99.90;;;;;;5033334;28;20164;-69
2022/10/23 09:42:20;;;;;;;2.97;2.50;;;16.30;99.90;;;;;;5031966;28;20272;-69
2022/10/23 09:44:52;;;;;;;4.10;2.55;;;16.50;99.90;;;;;;5033227;28;20190;-69
2022/10/23 09:47:19;;;;;;;7.25;2.88;;;16.70;99.90;;;;;;5033000;28;20181;-69
2022/10/23 09:49:56;;;;;;;4.20;2.90;;;16.90;99.90;;;;;;5032041;28;20185;-69
2022/10/23 09:52:34;;;;;;;4.03;2.92;;;16.90;99.90;;;;;;5034480;28;20174;-69
2022/10/23 09:55:14;;;;;;;5.82;2.80;;;17.00;99.90;;;;;;5037980;28;20194;-69
2022/10/23 09:57:41;;;;;;;5.68;2.67;;;16.90;99.90;;;;;;5037489;28;20162;-69
2022/10/23 10:00:16;;;;;;;4.25;2.65;;;16.90;99.90;;;;;;5037176;28;20183;-69
2022/10/23 10:02:53;;;;;;;3.70;2.60;;;16.80;99.90;;;;;;5035732;28;20578;-69
2022/10/23 10:05:37;;;;;;;2.85;2.65;;;16.80;99.90;;;;;;5037020;28;20190;-69
2022/10/23 10:08:04;;;;;;;3.72;2.40;;;16.70;99.90;;;;;;5035735;28;20174;-69
2022/10/23 10:10:46;;;;;;;2.30;2.20;;;16.70;99.90;;;;;;5037085;28;20238;-69
2022/10/23 10:13:32;;;;;;;4.68;2.67;;;16.70;99.90;;;;;;5037164;28;20179;-69
2022/10/23 10:16:15;;;;;;;4.03;2.67;;;16.70;99.90;;;;;;5035687;28;20187;-69
2022/10/23 10:19:12;;;;;;;2.50;2.30;;;16.70;99.90;;;;;;5036882;28;20561;-69
2022/10/23 10:21:56;;;;;;;3.00;2.58;;;16.80;99.90;;;;;;5036935;28;20585;-69
2022/10/23 10:24:33;;;;;;;5.68;2.72;;;16.80;99.90;;;;;;5036751;28;20199;-69
2022/10/23 10:27:09;;;;;;;3.58;2.58;;;16.80;99.90;;;;;;5036583;28;20163;-69
2022/10/23 10:29:53;;;;;;;2.65;2.20;;;16.80;99.90;;;;;;5037401;28;20170;-69
2022/10/23 10:32:44;;;;;;;2.60;2.40;;;16.80;99.90;;;;;;5037007;28;20174;-67
2022/10/23 10:35:40;;;;;;;4.63;2.70;;;16.80;99.90;;;;;;5036795;28;20198;-64
2022/10/23 10:38:39;;;;;;;5.85;2.60;;;16.90;99.90;;;;;;5038299;28;20163;-69
2022/10/23 10:41:21;;;;;;;7.97;2.67;;;16.90;99.90;;;;;;5036586;28;20253;-68
2022/10/23 10:44:11;;;;;;;4.35;2.67;;;16.80;99.90;;;;;;5036608;28;20203;-67
2022/10/23 10:46:52;;;;;;;3.92;2.40;;;16.90;99.90;;;;;;5036549;28;20166;-73
2022/10/23 10:49:33;;;;;;;8.00;2.30;;;16.80;99.90;;;;;;5035087;28;20178;-73
2022/10/23 10:52:36;;;;;;;3.60;2.28;;;16.80;99.90;;;;;;5035186;28;20218;-72
2022/10/23 10:55:21;;;;;;;4.32;2.53;;;16.80;99.90;;;;;;5035484;28;20205;-72
2022/10/23 10:57:57;;;;;;;5.90;2.47;;;16.80;99.90;;;;;;5037036;28;20163;-71
2022/10/23 11:00:23;;;;;;;4.50;2.70;;;16.80;99.90;;;;;;5036846;28;20238;-70
2022/10/23 11:03:18;;;;;;;5.03;2.60;;;16.90;99.90;;;;;;5035973;28;20623;-72
2022/10/23 11:05:47;;;;;;;4.03;2.50;;;16.90;99.90;;;;;;5027230;28;20191;-67
2022/10/23 11:08:15;;;;;;;4.88;2.60;;;16.90;99.90;;;;;;5036497;28;20209;-67
2022/10/23 11:10:48;;;;;;;5.50;2.90;;;16.80;99.90;;;;;;5034699;28;20258;-67
2022/10/23 11:13:36;;;;;;;7.63;2.53;;;16.80;99.90;;;;;;5035778;28;20648;-67
2022/10/23 11:16:28;;;;;;;3.85;2.30;;;16.80;99.90;;;;;;5035802;28;20159;-67
2022/10/23 11:19:04;;;;;;;3.65;2.22;;;16.80;99.90;;;;;;5035871;28;20271;-67
2022/10/23 11:21:39;;;;;;;3.80;2.38;;;16.80;99.90;;;;;;5035949;28;20616;-67
2022/10/23 11:24:17;;;;;;;2.55;2.13;;;16.80;99.90;;;;;;5035912;28;20201;-68
2022/10/23 11:26:57;;;;;;;2.50;2.30;;;16.70;99.90;;;;;;5035578;28;20651;-67
2022/10/23 11:29:31;;;;;;;4.28;2.50;;;16.70;99.90;;;;;;5035491;28;20245;-67
2022/10/23 11:32:18;;;;;;;9.68;3.08;;;16.70;99.90;;;;;;5035456;28;20230;-72
2022/10/23 11:34:56;;;;;;;8.15;4.05;;;16.80;99.90;;;;;;5036049;28;20195;-68
2022/10/23 11:37:23;;;;;;;7.35;3.72;;;16.80;99.90;;;;;;5034129;28;20178;-68
2022/10/23 11:40:20;;;;;;;2.70;2.30;;;16.90;99.90;;;;;;5035818;28;20209;-67
2022/10/23 11:42:47;;;;;;;5.00;3.00;;;17.00;99.90;;;;;;5035669;28;20640;-67
2022/10/23 11:45:33;;;;;;;3.58;3.28;;;17.00;99.90;;;;;;5035180;28;20702;-68
2022/10/23 11:48:36;;;;;;;3.92;3.40;;;17.00;99.90;;;;;;5035323;28;20557;-68
2022/10/23 11:51:03;;;;;;;14.05;9.18;;;17.00;99.90;;;;;;5034606;28;20215;-67
2022/10/23 11:53:31;;;;;;;13.52;9.10;;;17.10;99.90;;;;;;5035378;28;20195;-68
2022/10/23 11:55:57;;;;;;;4.55;3.55;;;17.10;99.90;;;;;;5033779;28;20553;-68
2022/10/23 11:58:40;;;;;;;5.68;3.22;;;17.10;99.90;;;;;;5034999;28;20174;-68
2022/10/23 12:01:33;;;;;;;2.70;2.47;;;17.10;99.90;;;;;;5034955;28;20202;-68
2022/10/23 12:04:20;;;;;;;7.93;5.15;;;17.10;99.90;;;;;;5034906;28;20624;-68
2022/10/23 12:06:55;;;;;;;11.48;5.18;;;17.10;99.90;;;;;;5034800;28;20605;-70
2022/10/23 12:09:29;;;;;;;5.05;2.72;;;17.10;99.90;;;;;;5033455;28;20258;-70
2022/10/23 12:12:07;;;;;;;7.25;3.05;;;17.00;99.90;;;;;;5035300;28;20159;-68
2022/10/23 12:14:38;;;;;;;4.93;2.50;;;16.90;99.90;;;;;;5034336;28;20198;-67
2022/10/23 12:17:30;;;;;;;6.97;2.40;;;16.90;99.90;;;;;;5034214;28;20667;-67
2022/10/23 12:20:11;;;;;;;2.88;2.40;;;17.00;99.90;;;;;;5035363;28;20159;-67
2022/10/23 12:22:59;;;;;;;3.13;2.40;;;17.10;99.90;;;;;;5034630;28;20182;-67
2022/10/23 12:25:49;;;;;;;6.80;2.63;;;17.20;99.90;;;;;;5034412;28;20195;-68
2022/10/23 12:28:25;;;;;;;10.13;2.60;;;17.40;99.90;;;;;;5034300;28;20194;-68
2022/10/23 12:31:14;;;;;;;4.10;2.47;;;17.60;99.90;;;;;;5034589;28;20242;-68
2022/10/23 12:34:09;;;;;;;3.70;2.35;;;17.70;99.90;;;;;;5034225;28;20217;-68
2022/10/23 12:37:02;;;;;;;4.85;2.20;;;17.70;99.90;;;;;;5029963;28;20195;-68
2022/10/23 12:39:36;;;;;;;4.10;2.22;;;17.90;99.90;;;;;;5034836;28;20266;-68
2022/10/23 12:42:03;;;;;;;4.97;2.38;;;18.10;99.90;;;;;;5034100;28;20187;-68
2022/10/23 12:44:29;;;;;;;5.10;2.55;;;18.40;99.90;;;;;;5033951;28;20198;-72
2022/10/23 12:47:03;;;;;;;4.95;2.50;;;18.60;99.90;;;;;;5032831;28;20179;-69
2022/10/23 12:49:32;;;;;;;3.35;2.72;;;18.70;99.90;;;;;;5015043;28;20159;-64
2022/10/23 12:51:58;;;;;;;4.18;2.22;;;18.90;99.90;;;;;;5014190;28;20183;-64
2022/10/23 12:54:24;;;;;;;5.80;2.35;;;19.00;99.90;;;;;;5014193;28;20191;-64
2022/10/23 12:56:50;;;;;;;7.55;2.85;;;19.10;99.90;;;;;;5014413;28;20156;-64
2022/10/23 12:59:34;;;;;;;4.63;2.53;;;19.30;99.90;;;;;;5012897;28;20180;-64
2022/10/23 13:02:00;;;;;;;5.63;2.60;;;19.30;99.90;;;;;;5014137;28;20206;-65
2022/10/23 13:04:32;;;;;;;5.95;2.33;;;19.40;99.90;;;;;;5014675;28;20200;-65
2022/10/23 13:07:02;;;;;;;6.97;2.28;;;19.50;99.90;;;;;;5014393;28;20195;-75
2022/10/23 13:09:37;;;;;;;7.07;2.85;;;19.50;99.90;;;;;;5013943;28;20547;-64
2022/10/23 13:12:05;;;;;;;3.17;2.53;;;19.50;99.90;;;;;;5014438;28;20167;-65